Weather observations for the past three days for
Kirksville, Kirksville Regional Airport
| Date | Time (cdt) | Wind (mph) | Vis. (mi.) | Weather | Sky Cond. | Temperature (ºF) | Relative Humidity | Wind Chill (°F) | Heat Index (°F) | Pressure | Precipitation (in) | ||||||
|---|---|---|---|---|---|---|---|---|---|---|---|---|---|---|---|---|---|
| Air | Dwpt | 6 hour | altimeter (in) | sea level (mb) | 1 hr | 3 hr | 6 hr | ||||||||||
| Max. | Min. | ||||||||||||||||
| 03 | 06:55 | S 7 | 10.00 | Fair | CLR | 75 | 68 | 80.1 | 73.9 | 79% | 76 | 29.95 | 1013.6 | ||||
| 03 | 05:55 | S 6 | 10.00 | Fair | CLR | 75 | 69.1 | 82% | 75 | 29.94 | 1013.1 | ||||||
| 03 | 04:55 | S 7 | 10.00 | Fair | CLR | 75.9 | 69.1 | 79% | 77 | 29.94 | 1012.9 | ||||||
| 03 | 03:55 | S 8 | 10.00 | Fair | CLR | 77 | 70 | 79% | 79 | 29.94 | 1012.9 | ||||||
| 03 | 02:55 | S 8 | 10.00 | Fair | CLR | 78.1 | 70 | 76% | 80 | 29.94 | 1012.9 | ||||||
| 03 | 01:55 | S 7 | 10.00 | Fair | CLR | 78.1 | 70 | 76% | 80 | 29.94 | 1013.1 | ||||||
| 03 | 00:55 | S 7 | 10.00 | Fair | CLR | 80.1 | 69.1 | 90 | 78.1 | 69% | 83 | 29.95 | 1013.2 | ||||
| 02 | 23:55 | S 8 | 10.00 | Fair | CLR | 79 | 69.1 | 72% | 82 | 29.94 | 1013.2 | ||||||
| 02 | 22:55 | S 8 | 10.00 | Fair | CLR | 79 | 70 | 74% | 82 | 29.95 | 1013.3 | ||||||
| 02 | 21:55 | S 8 | 10.00 | Fair | CLR | 78.1 | 70 | 76% | 80 | 29.95 | 1013.4 | ||||||
| 02 | 20:55 | S 6 | 10.00 | Fair | CLR | 81 | 70 | 69% | 84 | 29.94 | 1013.0 | ||||||
| 02 | 19:55 | S 6 | 10.00 | Fair | CLR | 84 | 70 | 63% | 88 | 29.93 | 1012.8 | ||||||
| 02 | 18:55 | S 5 | 10.00 | Fair | CLR | 91 | 70 | 98.1 | 91 | 50% | 97 | 29.93 | 1012.6 | ||||
| 02 | 17:55 | SW 10 | 10.00 | Fair | CLR | 95 | 66 | 39% | 98 | 29.93 | 1012.6 | ||||||
| 02 | 16:55 | SW 12 G 20 | 10.00 | Fair | CLR | 97 | 64.9 | 35% | 100 | 29.93 | 1012.6 | ||||||
| 02 | 15:55 | SW 10 | 10.00 | Fair | CLR | 98.1 | 66.9 | 36% | 103 | 29.94 | 1013.0 | ||||||
| 02 | 14:55 | SW 8 G 20 | 10.00 | Fair | CLR | 97 | 68 | 39% | 102 | 29.96 | 1013.7 | ||||||
| 02 | 13:55 | SW 12 G 17 | 10.00 | Fair | CLR | 96.1 | 69.1 | 41% | 102 | 29.97 | 1014.2 | ||||||
| 02 | 12:55 | S 8 | 10.00 | Fair | CLR | 93.9 | 70 | 93.9 | 73.9 | 46% | 100 | 30 | 1014.9 | ||||
| 02 | 11:55 | SW 10 G 21 | 10.00 | Fair | CLR | 91 | 70 | 50% | 97 | 30.01 | 1015.6 | ||||||
| 02 | 10:55 | SW 9 | 10.00 | Fair | CLR | 88 | 70 | 55% | 93 | 30.02 | 1015.7 | ||||||
| 02 | 09:55 | SW 12 | 10.00 | Fair | CLR | 84 | 69.1 | 61% | 88 | 30 | 1015.4 | ||||||
| 02 | 08:55 | SW 7 | 10.00 | Fair | CLR | 82 | 68 | 63% | 85 | 30 | 1015.4 | ||||||
| 02 | 07:55 | SW 7 | 10.00 | Fair | CLR | 78.1 | 68 | 71% | 80 | 30 | 1015.3 | ||||||
| 02 | 06:55 | S 7 | 10.00 | Fair | CLR | 73.9 | 68 | 79 | 73 | 82% | 30 | 1015.1 | |||||
| 02 | 05:55 | S 5 | 10.00 | Fair | CLR | 73.9 | 68 | 82% | 29.99 | 1014.9 | |||||||
| 02 | 04:55 | S 5 | 10.00 | Partly Cloudy | SCT100 | 73.9 | 68 | 82% | 29.99 | 1014.7 | |||||||
| 02 | 03:55 | S 6 | 10.00 | Fair | CLR | 75 | 68 | 79% | 76 | 29.98 | 1014.2 | ||||||
| 02 | 02:55 | S 7 | 10.00 | Fair | CLR | 75.9 | 68 | 77% | 77 | 29.96 | 1013.8 | ||||||
| 02 | 01:55 | S 6 | 10.00 | Fair | CLR | 78.1 | 68 | 71% | 80 | 29.97 | 1014.1 | ||||||
| 02 | 00:55 | S 8 | 10.00 | Fair | CLR | 78.1 | 68 | 89.1 | 75 | 71% | 80 | 29.98 | 1014.5 | ||||
| 01 | 23:55 | S 6 | 10.00 | Fair | CLR | 77 | 66.9 | 71% | 79 | 29.99 | 1014.7 | ||||||
| 01 | 22:55 | S 7 | 10.00 | Fair | CLR | 75 | 66 | 74% | 76 | 29.98 | 1014.5 | ||||||
| 01 | 21:55 | S 6 | 10.00 | Fair | CLR | 77 | 66 | 69% | 79 | 29.97 | 1014.2 | ||||||
| 01 | 20:55 | S 6 | 10.00 | Fair | CLR | 78.1 | 66.9 | 69% | 80 | 29.96 | 1013.9 | ||||||
| 01 | 19:55 | S 7 | 10.00 | Fair | CLR | 82 | 66 | 58% | 84 | 29.95 | 1013.7 | ||||||
| 01 | 18:55 | S 6 | 10.00 | Fair | CLR | 90 | 66 | 98.1 | 90 | 45% | 93 | 29.96 | 1013.8 | ||||
| 01 | 17:55 | S 7 | 10.00 | Fair | CLR | 95 | 63 | 35% | 96 | 29.96 | 1013.8 | ||||||
| 01 | 16:55 | SW 9 | 10.00 | Fair | CLR | 97 | 62.1 | 32% | 98 | 29.96 | 1013.7 | ||||||
| 01 | 15:55 | SW 10 | 10.00 | Fair | CLR | 98.1 | 62.1 | 31% | 99 | 29.97 | 1014.1 | ||||||
| 01 | 14:55 | W 13 G 23 | 10.00 | Fair | CLR | 97 | 61 | 30% | 98 | 29.99 | 1014.6 | ||||||
| 01 | 13:55 | SW 9 | 10.00 | Fair | CLR | 97 | 63 | 33% | 99 | 30.01 | 1015.3 | ||||||
| 01 | 12:55 | SW 10 | 10.00 | Fair | CLR | 96.1 | 66 | 96.1 | 72 | 37% | 100 | 30.02 | 1015.7 | ||||
| 01 | 11:55 | SW 9 | 10.00 | Fair | CLR | 93 | 68 | 44% | 97 | 30.03 | 1016.2 | ||||||
| 01 | 10:55 | SW 8 | 10.00 | Fair | CLR | 89.1 | 68 | 50% | 93 | 30.04 | 1016.4 | ||||||
| 01 | 09:55 | SW 9 | 10.00 | Fair | CLR | 84.9 | 66 | 53% | 87 | 30.04 | 1016.7 | ||||||
| 01 | 08:55 | SW 8 | 10.00 | Fair | CLR | 81 | 66 | 61% | 83 | 30.05 | 1016.8 | ||||||
| 01 | 07:55 | SW 7 | 10.00 | Fair | CLR | 75 | 64.9 | 71% | 77 | 30.04 | 1016.7 | ||||||
| 01 | 06:55 | SW 6 | 10.00 | Fair | CLR | 72 | 64 | 75 | 71.1 | 76% | 30.02 | 1016.1 | |||||
| 01 | 05:55 | SW 5 | 10.00 | Fair | CLR | 72 | 64.9 | 79% | 30 | 1015.3 | |||||||
| 01 | 04:55 | S 5 | 10.00 | Fair | CLR | 73.9 | 66 | 76% | 29.99 | 1014.8 | |||||||
| 01 | 03:55 | SW 3 | 10.00 | Fair | CLR | 73 | 68 | 84% | 29.99 | 1014.7 | |||||||
| 01 | 02:55 | S 3 | 10.00 | Fair | CLR | 73.9 | 68 | 82% | 29.99 | 1014.7 | |||||||
| 01 | 01:55 | SW 3 | 10.00 | Fair | CLR | 73.9 | 68 | 82% | 29.99 | 1014.8 | |||||||
| 01 | 00:55 | SW 5 | 10.00 | Fair | CLR | 75 | 69.1 | 90 | 73 | 82% | 75 | 29.99 | 1014.7 | ||||
| 31 | 23:55 | Calm | 10.00 | Fair | CLR | 73 | 70 | 90% | 29.98 | 1014.6 | |||||||
| 31 | 22:55 | Calm | 10.00 | Fair | CLR | 75 | 70 | 84% | 75 | 29.98 | 1014.5 | ||||||
| 31 | 21:55 | Calm | 10.00 | Fair | CLR | 77 | 71.1 | 82% | 79 | 29.97 | 1014.4 | ||||||
| 31 | 20:55 | S 5 | 10.00 | Fair | CLR | 79 | 71.1 | 77% | 82 | 29.96 | 1014.0 | ||||||
| 31 | 19:55 | S 5 | 10.00 | Fair | CLR | 84 | 71.1 | 65% | 89 | 29.95 | 1013.5 | ||||||
| 31 | 18:55 | SW 3 | 10.00 | Fair | CLR | 90 | 70 | 93.9 | 90 | 52% | 95 | 29.94 | 1013.2 | ||||
| 31 | 17:55 | SW 8 | 10.00 | Fair | CLR | 91.9 | 70 | 49% | 98 | 29.94 | 1013.2 | ||||||
| 31 | 16:55 | SW 13 G 20 | 10.00 | Fair | CLR | 93.9 | 69.1 | 44% | 99 | 29.95 | 1013.3 | ||||||
| 31 | 15:55 | W 9 G 20 | 10.00 | Fair | CLR | 93 | 68 | 44% | 97 | 29.95 | 1013.4 | ||||||
| 31 | 14:55 | SW 13 G 21 | 10.00 | Fair | CLR | 93 | 66.9 | 42% | 97 | 29.95 | 1013.5 | ||||||
| 31 | 13:55 | SW 14 G 23 | 10.00 | Fair | CLR | 93 | 68 | 44% | 97 | 29.95 | 1013.5 | ||||||
| 31 | 12:55 | SW 14 G 23 | 10.00 | Fair | CLR | 91 | 66.9 | 91.9 | 75.9 | 45% | 94 | 29.96 | 1013.9 | ||||
| 31 | 11:55 | SW 13 | 10.00 | NULL | NULL | 90 | 66.9 | 47% | 93 | 29.97 | 1014.2 | ||||||
| 31 | 10:55 | SW 13 G 26 | 10.00 | Fair | CLR | 87.1 | 64.9 | 48% | 89 | 29.98 | 1014.4 | ||||||
| 31 | 09:55 | SW 10 | 10.00 | A Few Clouds | FEW110 | 82 | 66 | 58% | 84 | 29.97 | 1014.3 | ||||||
| 31 | 08:55 | SW 10 G 22 | 10.00 | A Few Clouds | FEW110 | 78.1 | 64 | 62% | 80 | 29.98 | 1014.5 | ||||||
| 31 | 07:55 | SW 12 G 23 | 10.00 | Mostly Cloudy | BKN110 | 77 | 64 | 64% | 79 | 29.97 | 1014.2 | ||||||
| Date | Time (cdt) | Wind (mph) | Vis. (mi.) | Weather | Sky Cond. | Air | Dwpt | Max. | Min. | Relative Humidity | Wind Chill (°F) | Heat Index (°F) | altimeter (in) | sea level (mb) | 1 hr | 3 hr | 6 hr |
| 6 hour | |||||||||||||||||
| Temperature (ºF) | Pressure | Precipitation (in) | |||||||||||||||